Vremea acum in Blaj - Romania

Vrei sa afli care e starea vremii acum in Alba - Romania? Dorim sa iti furnizam starea vremii pentru Alba - Romania. Starea vremii Alba - Romania pentru astazi.

Vremea acum in Blaj

Temperatura: 13.2 °C

Este: Burniță ușoară
Se simte ca: 13.8 °C
Innorat: 0 %
Precipitatii: 100 %
Presiune atmosferica: 1015 hPa
Umiditate: 88%
Vizibilitate: 10 km
Vantul bate din W cu 3.6 km/h

Evolutia vremii in Blaj pe ore

Ora: 04:00
Burniță ușoară
Temperatura: 12.4°C
Sansa de precipitatii: 100%
Ora Descriere Temp Se simte Precipitatii Umiditate Vant
00:0012.4°12.7°0%86%NNW 4.3 KM/H
01:00Patchy rain nearby12.1°12.7°87%87%N 3.2 KM/H
02:00Patchy rain nearby12°12°69%87%NNW 2.2 KM/H
03:00Patchy rain nearby12.3°12.3°100%87%N 1.8 KM/H
04:00Burniță ușoară12.4°12.4°100%88%NNW 1.4 KM/H
05:00Burniță ușoară13.2°12.4°100%88%W 3.6 KM/H
06:00Burniță ușoară12.2°12.2°100%91%NW 1.4 KM/H
07:00Burniță ușoară12.8°12.8°100%92%NNE 1.8 KM/H
08:00Burniță ușoară13.4°13.4°100%91%N 1.8 KM/H
09:00Burniță ușoară13.9°13.9°100%90%N 0.7 KM/H
10:00Burniță ușoară14.2°14.2°100%89%W 1.4 KM/H
11:00Burniță ușoară14.3°14.3°100%89%SE 1.8 KM/H
12:00Burniță ușoară14.1°14.1°100%91%SSW 2.2 KM/H
13:00Burniță ușoară14.1°14.1°100%91%WSW 2.9 KM/H
14:00Burniță ușoară14.2°14.9°100%91%WSW 3.6 KM/H
15:00Burniță ușoară14.1°14.7°100%91%WSW 4 KM/H
16:00Patchy rain nearby14.3°14.7°100%90%WSW 4.7 KM/H
17:00Patchy rain nearby14.3°15.1°100%89%SW 3.2 KM/H
18:00Patchy rain nearby14.1°14.1°100%91%S 1.4 KM/H
19:00Patchy rain nearby13.6°13.7°100%92%SSW 2.5 KM/H
20:00Patchy rain nearby12.9°12.7°100%94%SSW 6.5 KM/H
21:00Ceata12.4°12.2°65%94%SSW 6.5 KM/H
22:00Acoperit de nori11.6°11.6°0%94%SW 4.7 KM/H
23:00Innorat11.2°11.7°0%93%SSW 3.2 KM/H




tutorials